Terminal Aerodrome Forecast
Issued by NWS

Home | Current Version | Previous Version | Text Only | Print | Product List | Glossary On
Versions: 1 2 3 4 5 6 7 8 9 10 11 12 13 14 15 16 17 18
000
FTUS44 KTSA 041725
TAFXNA
TAF
KXNA 041725Z 0418/0518 VRB04KT P6SM VCSH SCT022
     FM050100 17003KT P6SM FEW250
     FM050600 VRB02KT 4SM BR FEW250
     FM050900 00000KT 4SM BR OVC008 PROB30 0514/0518 5SM -TSRA BR
      OVC015CB=

USA.gov is the U.S. government's official web portal to all federal, state and local government web resources and services.